Time;durP1;ratioP1;P1;durP2;ratioP2;P2;SDS_P1;SDS_P2;PMS_P1;PMS_P2;Temp;Humidity;BMP_temperature;BMP_pressure;BME280_temperature;BME280_humidity;BME280_pressure;Samples;Min_cycle;Max_cycle;Signal;HPM_P1;HPM_P2
2023/05/01 00:00:18;;;;;;;8.55;3.90;;;11.00;99.90;;;;;;5012083;28;20075;-91
2023/05/01 00:02:44;;;;;;;10.15;3.65;;;10.90;99.90;;;;;;4994135;28;20583;-91
2023/05/01 00:05:10;;;;;;;7.32;4.20;;;10.90;99.90;;;;;;5009419;28;20142;-91
2023/05/01 00:07:36;;;;;;;8.23;3.83;;;10.90;99.90;;;;;;4989478;28;20117;-91
2023/05/01 00:10:01;;;;;;;7.97;3.60;;;11.20;99.90;;;;;;4999695;28;20039;-90
2023/05/01 00:12:27;;;;;;;9.05;3.65;;;10.80;99.90;;;;;;5010820;28;20133;-91
2023/05/01 00:14:53;;;;;;;9.98;4.35;;;10.80;99.90;;;;;;5001915;28;20031;-91
2023/05/01 00:17:21;;;;;;;6.63;3.47;;;10.80;99.90;;;;;;4994922;28;20046;-92
2023/05/01 00:19:56;;;;;;;6.80;3.55;;;10.80;99.90;;;;;;5004823;28;20049;-91
2023/05/01 00:22:21;;;;;;;;;;;10.70;99.90;;;;;;4997501;28;20120;-92
2023/05/01 00:24:48;;;;;;;9.27;3.78;;;10.80;99.90;;;;;;5001966;28;19976;-91
2023/05/01 00:27:14;;;;;;;9.60;4.15;;;10.70;99.90;;;;;;4998158;28;20060;-90
2023/05/01 00:29:41;;;;;;;9.73;3.85;;;10.70;99.90;;;;;;5003311;28;20035;-90
2023/05/01 00:32:06;;;;;;;7.07;3.42;;;10.70;99.90;;;;;;4984532;28;20045;-92
2023/05/01 00:34:32;;;;;;;8.77;3.90;;;10.70;99.90;;;;;;4996379;28;20401;-91
2023/05/01 00:36:58;;;;;;;6.47;3.85;;;10.70;99.90;;;;;;4979687;28;20404;-90
2023/05/01 00:39:26;;;;;;;6.88;4.35;;;10.60;99.90;;;;;;5002857;28;20042;-91
2023/05/01 00:41:53;;;;;;;5.63;3.30;;;10.60;99.90;;;;;;4999282;28;20056;-91
2023/05/01 00:44:19;;;;;;;8.15;3.70;;;10.60;99.90;;;;;;4997028;28;20125;-92
2023/05/01 00:46:46;;;;;;;7.20;3.97;;;10.60;99.90;;;;;;5000759;28;20073;-91
2023/05/01 00:49:16;;;;;;;5.30;2.90;;;10.50;99.90;;;;;;4976094;28;20178;-90
2023/05/01 00:51:42;;;;;;;7.38;4.13;;;10.60;99.90;;;;;;5007872;28;20042;-90
2023/05/01 00:54:08;;;;;;;11.77;4.25;;;10.60;99.90;;;;;;5004566;28;20053;-90
2023/05/01 00:56:34;;;;;;;8.13;3.90;;;10.50;99.90;;;;;;5003526;28;20045;-91
2023/05/01 00:59:00;;;;;;;8.85;3.97;;;10.50;99.90;;;;;;4984831;28;20107;-92
2023/05/01 01:01:27;;;;;;;10.32;4.43;;;10.50;99.90;;;;;;5003738;28;20049;-91
2023/05/01 01:03:53;;;;;;;7.03;3.78;;;10.50;99.90;;;;;;5012362;28;20034;-90
2023/05/01 01:06:46;;;;;;;7.13;3.72;;;11.10;99.90;;;;;;4991327;28;20100;-90
2023/05/01 01:09:20;;;;;;;8.20;4.22;;;10.40;99.90;;;;;;5007787;28;20050;-91
2023/05/01 01:12:11;;;;;;;7.05;3.75;;;10.40;99.90;;;;;;5012957;28;20034;-91
2023/05/01 01:14:57;;;;;;;6.78;3.20;;;10.40;99.90;;;;;;4989787;28;20049;-90
2023/05/01 01:17:31;;;;;;;7.00;3.75;;;10.30;99.90;;;;;;5001122;28;20146;-91
2023/05/01 01:20:22;;;;;;;7.07;4.00;;;10.30;99.90;;;;;;5012102;28;20048;-91
2023/05/01 01:22:59;;;;;;;10.45;4.25;;;10.50;99.90;;;;;;5006390;28;20050;-90
2023/05/01 01:25:52;;;;;;;10.05;4.90;;;10.20;99.90;;;;;;5011178;28;20035;-90
2023/05/01 01:28:21;;;;;;;8.93;4.75;;;10.20;99.90;;;;;;5001563;28;20038;-91
2023/05/01 01:31:03;;;;;;;8.52;4.28;;;10.10;99.90;;;;;;5013588;28;20037;-92
2023/05/01 01:33:37;;;;;;;8.55;3.72;;;10.10;99.90;;;;;;5007063;28;20103;-90
2023/05/01 01:36:10;;;;;;;11.70;4.20;;;10.00;99.90;;;;;;5004374;28;20062;-91
2023/05/01 01:38:53;;;;;;;10.95;4.00;;;10.10;99.90;;;;;;4995055;28;20105;-90
2023/05/01 01:41:48;;;;;;;7.93;3.97;;;9.90;99.90;;;;;;4995930;28;20202;-90
2023/05/01 01:44:39;;;;;;;7.85;4.07;;;9.80;99.90;;;;;;4993330;28;20042;-90
2023/05/01 01:47:09;;;;;;;9.02;4.57;;;9.80;99.90;;;;;;5013009;28;20060;-90
2023/05/01 01:49:40;;;;;;;6.63;3.72;;;9.80;99.90;;;;;;4990474;28;20042;-91
2023/05/01 01:52:07;;;;;;;8.15;4.00;;;9.70;99.90;;;;;;4994302;28;20042;-91
2023/05/01 01:54:37;;;;;;;8.80;4.45;;;10.00;99.90;;;;;;4997619;28;20044;-91
2023/05/01 01:57:06;;;;;;;7.82;4.07;;;9.70;99.90;;;;;;4988770;28;20049;-92
2023/05/01 01:59:34;;;;;;;8.23;4.50;;;9.70;99.90;;;;;;4992513;28;20042;-91
2023/05/01 02:02:04;;;;;;;8.27;3.78;;;9.70;99.90;;;;;;4999986;28;20054;-91
2023/05/01 02:04:31;;;;;;;8.48;4.43;;;9.60;99.90;;;;;;5002637;28;20104;-90
2023/05/01 02:06:58;;;;;;;7.32;4.00;;;9.60;99.90;;;;;;4987669;28;20042;-90
2023/05/01 02:09:26;;;;;;;7.78;4.05;;;9.60;99.90;;;;;;4999350;28;20038;-91
2023/05/01 02:11:56;;;;;;;8.00;4.10;;;9.60;99.90;;;;;;5003745;28;20162;-89
2023/05/01 02:14:25;;;;;;;10.02;4.55;;;9.60;99.90;;;;;;5002087;28;20049;-92
2023/05/01 02:16:52;;;;;;;8.13;4.57;;;9.60;99.90;;;;;;4993973;28;20061;-91
2023/05/01 02:19:19;;;;;;;8.60;4.03;;;9.50;99.90;;;;;;4998418;28;20045;-90
2023/05/01 02:21:45;;;;;;;11.00;4.57;;;9.60;99.90;;;;;;5006326;28;20068;-91
2023/05/01 02:24:13;;;;;;;9.30;4.75;;;9.60;99.90;;;;;;4993245;28;20066;-92
2023/05/01 02:26:45;;;;;;;7.97;4.20;;;9.50;99.90;;;;;;4996412;28;20033;-90
2023/05/01 02:29:11;;;;;;;10.95;4.45;;;9.50;99.90;;;;;;5009760;28;20440;-92
2023/05/01 02:31:37;;;;;;;11.43;4.53;;;9.40;99.90;;;;;;5003775;28;20097;-90
2023/05/01 02:34:02;;;;;;;10.85;4.90;;;9.40;99.90;;;;;;4983623;28;20475;-89
2023/05/01 02:36:28;;;;;;;9.13;4.93;;;9.30;99.90;;;;;;5001362;28;20126;-91
2023/05/01 02:38:54;;;;;;;10.00;4.88;;;9.30;99.90;;;;;;5006370;28;20173;-92
2023/05/01 02:41:22;;;;;;;9.75;4.95;;;9.20;99.90;;;;;;5001566;28;20042;-91
2023/05/01 02:43:55;;;;;;;9.43;4.68;;;9.20;99.90;;;;;;4982023;28;20096;-90
2023/05/01 02:46:24;;;;;;;8.25;3.70;;;9.20;99.90;;;;;;5000321;28;20120;-91
2023/05/01 02:48:50;;;;;;;8.23;4.75;;;9.20;99.90;;;;;;4985319;28;20108;-91
2023/05/01 02:51:18;;;;;;;8.77;5.75;;;9.20;99.90;;;;;;5002179;28;20042;-91
2023/05/01 02:53:45;;;;;;;9.45;4.50;;;9.20;99.90;;;;;;4998448;28;20046;-91
2023/05/01 02:56:11;;;;;;;11.75;5.20;;;9.10;99.90;;;;;;4993996;28;20485;-91
2023/05/01 02:58:37;;;;;;;9.60;5.00;;;9.10;99.90;;;;;;5005071;28;20113;-92
2023/05/01 03:01:03;;;;;;;11.35;5.10;;;9.00;99.90;;;;;;4996928;28;20073;-91
2023/05/01 03:03:29;;;;;;;8.93;5.28;;;9.00;99.90;;;;;;5007597;28;20082;-91
2023/05/01 03:05:54;;;;;;;11.43;5.40;;;8.90;99.90;;;;;;4995953;28;20264;-91
2023/05/01 03:08:21;;;;;;;8.70;4.43;;;8.90;99.90;;;;;;4994738;28;20618;-91
2023/05/01 03:10:46;;;;;;;11.18;5.05;;;8.90;99.90;;;;;;5003272;28;20048;-91
2023/05/01 03:13:12;;;;;;;10.02;4.97;;;8.80;99.90;;;;;;5001074;28;20031;-91
2023/05/01 03:15:38;;;;;;;9.40;5.45;;;8.80;99.90;;;;;;4994908;28;20046;-91
2023/05/01 03:18:04;;;;;;;8.80;4.85;;;8.70;99.90;;;;;;4998626;28;20042;-91
2023/05/01 03:20:30;;;;;;;10.60;5.20;;;8.70;99.90;;;;;;4996491;28;20125;-91
2023/05/01 03:22:56;;;;;;;9.38;5.10;;;8.60;99.90;;;;;;4980858;28;20046;-90
2023/05/01 03:25:22;;;;;;;9.82;5.68;;;8.60;99.90;;;;;;4995645;28;20065;-92
2023/05/01 03:27:48;;;;;;;10.45;5.65;;;8.60;99.90;;;;;;4987877;28;20037;-91
2023/05/01 03:30:14;;;;;;;9.32;4.72;;;8.60;99.90;;;;;;4993894;28;20046;-91
2023/05/01 03:32:40;;;;;;;12.05;5.50;;;8.60;99.90;;;;;;5002833;28;20041;-92
2023/05/01 03:35:08;;;;;;;9.23;5.22;;;8.50;99.90;;;;;;4993310;28;20053;-91
2023/05/01 03:37:34;;;;;;;9.50;4.90;;;8.50;99.90;;;;;;4992896;28;20049;-90
2023/05/01 03:40:02;;;;;;;9.50;4.95;;;8.50;99.90;;;;;;4990105;28;20048;-90
2023/05/01 03:42:28;;;;;;;12.15;5.43;;;8.50;99.90;;;;;;4998847;28;20527;-91
2023/05/01 03:44:54;;;;;;;8.57;5.47;;;8.50;99.90;;;;;;4999315;28;20033;-91
2023/05/01 03:47:20;;;;;;;10.50;5.97;;;8.50;99.90;;;;;;4984714;28;20040;-92
2023/05/01 03:49:45;;;;;;;11.07;5.40;;;8.40;99.90;;;;;;5000894;28;20042;-91
2023/05/01 03:52:11;;;;;;;10.48;4.75;;;8.40;99.90;;;;;;5007650;28;20121;-92
2023/05/01 03:54:38;;;;;;;9.95;4.97;;;8.40;99.90;;;;;;5002246;28;20050;-92
2023/05/01 03:57:03;;;;;;;11.40;6.00;;;8.40;99.90;;;;;;5005444;28;20061;-91
2023/05/01 03:59:29;;;;;;;10.35;5.53;;;8.30;99.90;;;;;;4996306;28;20042;-91
2023/05/01 04:01:55;;;;;;;12.25;5.63;;;8.30;99.90;;;;;;5010003;28;20485;-91
2023/05/01 04:04:21;;;;;;;10.93;5.47;;;8.20;99.90;;;;;;4994902;28;20613;-92
2023/05/01 04:06:49;;;;;;;10.07;5.43;;;8.20;99.90;;;;;;4988594;28;20045;-91
2023/05/01 04:09:15;;;;;;;9.60;5.47;;;8.20;99.90;;;;;;4999628;28;20053;-91
2023/05/01 04:11:40;;;;;;;7.78;4.55;;;8.20;99.90;;;;;;5001370;28;20493;-90
2023/05/01 04:14:06;;;;;;;15.75;7.63;;;8.10;99.90;;;;;;5001900;28;20515;-91
2023/05/01 04:16:32;;;;;;;10.50;4.65;;;8.10;99.90;;;;;;5007686;28;20053;-91
2023/05/01 04:18:58;;;;;;;10.02;5.30;;;8.10;99.90;;;;;;5005063;28;20038;-92
2023/05/01 04:21:25;;;;;;;9.68;5.22;;;8.10;99.90;;;;;;4996960;28;20030;-90
2023/05/01 04:23:53;;;;;;;11.00;4.40;;;8.20;99.90;;;;;;5010782;28;20523;-92
2023/05/01 04:26:22;;;;;;;13.98;5.60;;;8.20;99.90;;;;;;4995114;28;20042;-91
2023/05/01 04:28:49;;;;;;;13.90;6.47;;;8.20;99.90;;;;;;4991130;28;20495;-90
2023/05/01 04:31:15;;;;;;;11.30;5.90;;;8.30;99.90;;;;;;4992189;28;20049;-90
2023/05/01 04:33:41;;;;;;;8.35;4.32;;;8.30;99.90;;;;;;4993636;28;20045;-90
2023/05/01 04:36:07;;;;;;;12.73;5.20;;;8.20;99.90;;;;;;5005952;28;20046;-93
2023/05/01 04:38:36;;;;;;;16.63;5.78;;;8.10;99.90;;;;;;4994164;28;20038;-92
2023/05/01 04:41:02;;;;;;;10.07;5.40;;;8.10;99.90;;;;;;4995816;28;20429;-94
2023/05/01 04:43:27;;;;;;;13.52;6.40;;;8.20;99.90;;;;;;4979216;28;20043;-92
2023/05/01 04:45:53;;;;;;;12.93;6.00;;;8.20;99.90;;;;;;5001204;28;20044;-92
2023/05/01 04:48:19;;;;;;;12.27;6.00;;;8.20;99.90;;;;;;4996441;28;20030;-92
2023/05/01 04:50:45;;;;;;;8.43;4.70;;;8.50;99.90;;;;;;4994327;28;20045;-93
2023/05/01 04:53:11;;;;;;;11.70;6.15;;;8.30;99.90;;;;;;5000958;28;20045;-93
2023/05/01 04:55:37;;;;;;;13.25;5.60;;;8.30;99.90;;;;;;4994514;28;20046;-95
2023/05/01 04:58:03;;;;;;;11.55;5.72;;;8.30;99.90;;;;;;5008881;28;20046;-92
2023/05/01 05:00:29;;;;;;;10.90;5.75;;;8.30;99.90;;;;;;4983921;28;20501;-93
2023/05/01 05:02:55;;;;;;;9.57;5.40;;;8.40;99.90;;;;;;4993397;28;20101;-92
2023/05/01 05:05:24;;;;;;;10.15;6.05;;;8.40;99.90;;;;;;5005721;28;20057;-93
2023/05/01 05:07:52;;;;;;;9.38;5.85;;;8.80;99.90;;;;;;5000872;28;20033;-93
2023/05/01 05:10:19;;;;;;;14.73;6.05;;;8.40;99.90;;;;;;4986141;28;20038;-94
2023/05/01 05:12:45;;;;;;;9.82;5.60;;;8.50;99.90;;;;;;4980823;28;20178;-95
2023/05/01 05:15:11;;;;;;;11.65;6.32;;;8.50;99.90;;;;;;4996183;28;20051;-93
2023/05/01 05:17:36;;;;;;;10.13;5.40;;;8.60;99.90;;;;;;5002782;28;20050;-92
2023/05/01 05:20:03;;;;;;;8.98;5.50;;;8.60;99.90;;;;;;4993132;28;20042;-93
2023/05/01 05:22:28;;;;;;;12.10;6.70;;;8.60;99.90;;;;;;4993401;28;20599;-95
2023/05/01 05:24:54;;;;;;;12.18;6.55;;;8.60;99.90;;;;;;4995483;28;20125;-93
2023/05/01 05:27:21;;;;;;;12.65;6.43;;;8.70;99.90;;;;;;4982706;28;20038;-92
2023/05/01 05:29:46;;;;;;;11.95;6.78;;;9.10;99.90;;;;;;4996195;28;20084;-92
2023/05/01 05:32:12;;;;;;;12.63;7.18;;;8.80;99.90;;;;;;5000790;28;20592;-92
2023/05/01 05:34:39;;;;;;;10.35;6.30;;;8.80;99.90;;;;;;4994680;28;20539;-92
2023/05/01 05:37:05;;;;;;;12.75;6.72;;;8.80;99.90;;;;;;4995965;28;20082;-94
2023/05/01 05:39:31;;;;;;;9.98;5.85;;;8.80;99.90;;;;;;4993049;28;20594;-94
2023/05/01 05:42:00;;;;;;;11.57;6.70;;;8.80;99.90;;;;;;5010179;28;20045;-94
2023/05/01 05:44:25;;;;;;;12.15;7.18;;;8.90;99.90;;;;;;4989645;28;20570;-92
2023/05/01 05:46:51;;;;;;;9.35;5.10;;;8.90;99.90;;;;;;5003719;28;20076;-94
2023/05/01 05:49:19;;;;;;;11.88;6.35;;;8.90;99.90;;;;;;4995608;28;20030;-94
2023/05/01 05:51:45;;;;;;;11.85;5.93;;;9.10;99.90;;;;;;5015247;28;20041;-95
2023/05/01 05:54:11;;;;;;;14.45;6.85;;;9.00;99.90;;;;;;5005224;28;20381;-91
2023/05/01 05:56:37;;;;;;;10.88;6.10;;;9.00;99.90;;;;;;4999553;28;20560;-93
2023/05/01 05:59:03;;;;;;;9.35;5.70;;;9.00;99.90;;;;;;4998748;28;20045;-94
2023/05/01 06:01:29;;;;;;;13.50;6.78;;;9.10;99.90;;;;;;5007190;28;20051;-94
2023/05/01 06:03:55;;;;;;;13.65;6.70;;;9.10;99.90;;;;;;5003128;28;20042;-93
2023/05/01 06:06:21;;;;;;;13.25;6.70;;;9.10;99.90;;;;;;5011221;28;20053;-93
2023/05/01 06:08:47;;;;;;;11.63;6.63;;;9.20;99.90;;;;;;4998839;28;20042;-90
2023/05/01 06:11:12;;;;;;;15.63;6.70;;;9.20;99.90;;;;;;4997627;28;20440;-91
2023/05/01 06:13:38;;;;;;;11.95;6.22;;;9.20;99.90;;;;;;4996611;28;20045;-94
2023/05/01 06:16:06;;;;;;;13.38;6.18;;;9.20;99.90;;;;;;5004268;28;20076;-88
2023/05/01 06:18:32;;;;;;;13.45;7.45;;;9.20;99.90;;;;;;4997118;28;20057;-86
2023/05/01 06:20:58;;;;;;;13.23;7.25;;;9.30;99.90;;;;;;4993750;28;20052;-86
2023/05/01 06:23:24;;;;;;;14.90;7.80;;;9.30;99.90;;;;;;4990931;28;20052;-85
2023/05/01 06:25:50;;;;;;;13.10;6.65;;;9.30;99.90;;;;;;4982510;28;20077;-86
2023/05/01 06:28:20;;;;;;;14.07;6.65;;;9.40;99.90;;;;;;4995701;28;20265;-85
2023/05/01 06:30:51;;;;;;;10.77;6.85;;;9.40;99.90;;;;;;4991433;28;20050;-85
2023/05/01 06:33:17;;;;;;;12.80;7.65;;;9.00;99.90;;;;;;4991176;28;20060;-85
2023/05/01 06:35:49;;;;;;;13.80;7.40;;;9.50;99.90;;;;;;4998179;28;20041;-85
2023/05/01 06:38:15;;;;;;;12.73;6.95;;;9.60;99.90;;;;;;4989459;28;20053;-85
2023/05/01 06:40:41;;;;;;;9.25;5.45;;;9.60;99.90;;;;;;4993580;28;20149;-85
2023/05/01 06:43:08;;;;;;;13.90;6.50;;;9.70;99.90;;;;;;4992564;28;20050;-85
2023/05/01 06:45:34;;;;;;;11.63;6.90;;;9.80;99.90;;;;;;4991828;28;20046;-85
2023/05/01 06:47:59;;;;;;;12.32;6.78;;;9.80;99.90;;;;;;4988660;28;20388;-88
2023/05/01 06:50:27;;;;;;;13.68;7.22;;;9.90;99.90;;;;;;4991972;28;20038;-85
2023/05/01 06:52:57;;;;;;;23.83;7.78;;;9.90;99.90;;;;;;4994740;28;20117;-88
2023/05/01 06:55:23;;;;;;;11.52;6.47;;;9.90;99.90;;;;;;4987878;28;20049;-88
2023/05/01 06:57:49;;;;;;;13.95;7.38;;;10.00;99.90;;;;;;4997607;28;20045;-90
2023/05/01 07:00:16;;;;;;;14.07;7.22;;;10.10;99.90;;;;;;5003996;28;20100;-93
2023/05/01 07:02:45;;;;;;;10.73;6.60;;;10.10;99.90;;;;;;4986451;28;20053;-85
2023/05/01 07:05:11;;;;;;;13.35;7.20;;;10.20;99.90;;;;;;4991715;28;20045;-87
2023/05/01 07:07:39;;;;;;;15.70;7.45;;;10.30;99.90;;;;;;4999715;28;20089;-85
2023/05/01 07:10:05;;;;;;;12.57;6.68;;;10.50;99.90;;;;;;4993368;28;20488;-86
2023/05/01 07:12:34;;;;;;;17.23;6.35;;;11.10;99.90;;;;;;4998071;28;20035;-88
2023/05/01 07:15:00;;;;;;;18.38;7.10;;;10.60;99.90;;;;;;4996147;28;20038;-89
2023/05/01 07:17:26;;;;;;;13.57;6.93;;;10.50;99.90;;;;;;4997291;28;20092;-89
2023/05/01 07:19:52;;;;;;;12.98;6.88;;;10.60;99.90;;;;;;5002647;28;20235;-90
2023/05/01 07:22:18;;;;;;;11.02;6.28;;;10.70;99.90;;;;;;5005626;28;20400;-88
2023/05/01 07:24:44;;;;;;;14.23;7.38;;;10.80;99.90;;;;;;4982188;28;20034;-90
2023/05/01 07:27:10;;;;;;;14.05;7.32;;;10.90;99.90;;;;;;5005922;28;20030;-90
2023/05/01 07:29:38;;;;;;;16.40;6.78;;;11.00;99.90;;;;;;5003581;28;20557;-87
2023/05/01 07:32:06;;;;;;;11.35;5.78;;;11.10;99.90;;;;;;4991699;28;20081;-87
2023/05/01 07:34:32;;;;;;;11.95;6.72;;;11.20;99.90;;;;;;4995111;28;20054;-87
2023/05/01 07:37:00;;;;;;;14.68;8.07;;;11.80;99.90;;;;;;5002396;28;20046;-85
2023/05/01 07:39:26;;;;;;;14.82;6.85;;;11.30;99.90;;;;;;5005920;28;20054;-86
2023/05/01 07:41:51;;;;;;;11.43;7.43;;;11.50;99.90;;;;;;5002464;28;20038;-87
2023/05/01 07:44:23;;;;;;;12.73;5.88;;;11.60;99.90;;;;;;5000312;28;20042;-87
2023/05/01 07:46:52;;;;;;;11.13;6.18;;;11.70;99.90;;;;;;4996160;28;20042;-87
2023/05/01 07:49:18;;;;;;;13.80;6.57;;;11.70;99.90;;;;;;5000079;28;20034;-87
2023/05/01 07:51:45;;;;;;;11.13;5.80;;;12.50;99.90;;;;;;4994961;28;20044;-87
2023/05/01 07:54:13;;;;;;;13.55;6.32;;;12.00;99.90;;;;;;4997500;28;20156;-94
2023/05/01 07:56:39;;;;;;;13.43;5.80;;;12.10;99.90;;;;;;4996682;28;20054;-83
2023/05/01 07:59:05;;;;;;;13.48;6.50;;;12.20;99.90;;;;;;4997512;28;20056;-84
2023/05/01 08:01:33;;;;;;;12.02;6.25;;;12.30;99.90;;;;;;5000630;28;20058;-84
2023/05/01 08:03:59;;;;;;;12.40;6.28;;;12.40;99.90;;;;;;4993557;28;20038;-84
2023/05/01 08:06:25;;;;;;;13.10;5.80;;;12.50;99.90;;;;;;4992076;28;20489;-82
2023/05/01 08:08:51;;;;;;;13.68;6.43;;;12.50;99.90;;;;;;4993498;28;20063;-82
2023/05/01 08:11:16;;;;;;;9.48;5.88;;;12.60;99.90;;;;;;4999230;28;20034;-83
2023/05/01 08:13:42;;;;;;;12.43;6.35;;;12.70;99.90;;;;;;5001220;28;20454;-82
2023/05/01 08:16:08;;;;;;;11.43;6.50;;;12.80;99.90;;;;;;5000099;28;20424;-82
2023/05/01 08:18:34;;;;;;;11.45;6.43;;;12.90;99.90;;;;;;4999026;28;20046;-82
2023/05/01 08:20:59;;;;;;;10.68;5.53;;;13.00;99.90;;;;;;5002970;28;20080;-82
2023/05/01 08:23:25;;;;;;;15.25;6.15;;;13.10;99.90;;;;;;4994457;28;20393;-82
2023/05/01 08:25:51;;;;;;;10.68;6.40;;;13.20;99.90;;;;;;4992875;28;20105;-82
2023/05/01 08:28:20;;;;;;;10.43;5.47;;;13.10;99.90;;;;;;4992518;28;20561;-82
2023/05/01 08:30:47;;;;;;;12.05;5.57;;;13.40;99.90;;;;;;4991332;28;20049;-82
2023/05/01 08:33:12;;;;;;;11.27;5.80;;;13.50;99.90;;;;;;4991403;28;20477;-82
2023/05/01 08:35:38;;;;;;;10.50;5.53;;;13.60;99.90;;;;;;4995821;28;20047;-81
2023/05/01 08:38:03;;;;;;;10.88;5.60;;;13.70;99.90;;;;;;4991300;28;20042;-81
2023/05/01 08:40:34;;;;;;;10.88;5.60;;;13.70;99.90;;;;;;4992352;28;20034;-81
2023/05/01 08:43:01;;;;;;;11.63;5.95;;;13.80;99.90;;;;;;4990711;28;20100;-81
2023/05/01 08:45:29;;;;;;;12.52;5.95;;;13.90;99.90;;;;;;4999788;28;20046;-82
2023/05/01 08:47:57;;;;;;;10.80;5.47;;;13.90;99.90;;;;;;4992729;28;20042;-82
2023/05/01 08:50:24;;;;;;;10.63;5.22;;;14.00;99.90;;;;;;4999099;28;20038;-81
2023/05/01 08:52:51;;;;;;;9.95;4.75;;;14.10;99.90;;;;;;4994829;28;20038;-82
2023/05/01 08:55:19;;;;;;;10.30;5.15;;;14.20;99.90;;;;;;4992409;28;20121;-82
2023/05/01 08:57:46;;;;;;;11.80;5.10;;;14.30;99.90;;;;;;4993874;28;20038;-80
2023/05/01 09:00:20;;;;;;;9.23;4.50;;;14.60;99.90;;;;;;4991499;28;20596;-81
2023/05/01 09:02:47;;;;;;;11.75;5.53;;;14.60;99.90;;;;;;4990173;28;20420;-79
2023/05/01 09:05:15;;;;;;;12.48;5.25;;;14.80;99.90;;;;;;4994243;28;20049;-79
2023/05/01 09:07:42;;;;;;;9.45;4.00;;;14.90;99.90;;;;;;4996728;28;20061;-79
2023/05/01 09:10:08;;;;;;;7.53;3.10;;;15.00;99.90;;;;;;4990615;28;20389;-81
2023/05/01 09:12:34;;;;;;;10.15;3.92;;;15.20;99.90;;;;;;4992849;28;20091;-78
2023/05/01 09:15:02;;;;;;;8.57;3.80;;;15.30;99.90;;;;;;4989979;28;20341;-79
2023/05/01 09:17:32;;;;;;;7.88;3.92;;;15.40;99.90;;;;;;4991777;28;20042;-80
2023/05/01 09:20:00;;;;;;;6.50;3.10;;;15.50;99.90;;;;;;5001817;28;20282;-80
2023/05/01 09:22:26;;;;;;;9.10;3.47;;;15.70;99.90;;;;;;4994195;28;20125;-81
2023/05/01 09:24:52;;;;;;;6.97;3.38;;;15.80;99.90;;;;;;4991824;28;20035;-81
2023/05/01 09:27:18;;;;;;;14.45;3.97;;;16.00;99.90;;;;;;4991029;28;20050;-81
2023/05/01 09:29:46;;;;;;;10.55;4.75;;;16.00;99.90;;;;;;4999881;28;20034;-80
2023/05/01 09:32:32;;;;;;;7.28;3.22;;;16.20;99.90;;;;;;4990054;28;20038;-80
2023/05/01 09:35:12;;;;;;;6.32;2.83;;;16.30;99.90;;;;;;4990570;28;20429;-79
2023/05/01 09:37:38;;;;;;;6.95;2.88;;;16.40;99.90;;;;;;4991049;28;20038;-80
2023/05/01 09:40:09;;;;;;;9.13;2.70;;;16.50;99.90;;;;;;4992980;28;20026;-80
2023/05/01 09:42:37;;;;;;;7.75;2.40;;;16.60;99.90;;;;;;4998302;28;20038;-80
2023/05/01 09:45:13;;;;;;;4.82;1.83;;;16.70;99.90;;;;;;4990830;28;20485;-83
2023/05/01 09:47:41;;;;;;;4.88;2.00;;;17.00;99.90;;;;;;4990730;28;20050;-81
2023/05/01 09:50:07;;;;;;;7.68;2.88;;;16.90;99.90;;;;;;4983493;28;20500;-81
2023/05/01 09:52:33;;;;;;;4.43;2.10;;;17.00;99.90;;;;;;4991250;28;20046;-81
2023/05/01 09:55:16;;;;;;;6.53;2.22;;;17.00;99.90;;;;;;4972253;28;20065;-81
2023/05/01 09:57:43;;;;;;;6.90;2.50;;;17.10;99.90;;;;;;4990605;28;20050;-81
2023/05/01 10:00:11;;;;;;;6.50;2.65;;;17.20;99.90;;;;;;4996657;28;20385;-80
2023/05/01 10:02:37;;;;;;;6.25;2.42;;;17.30;99.90;;;;;;4993200;28;20050;-78
2023/05/01 10:05:04;;;;;;;5.75;2.00;;;17.40;99.90;;;;;;4990033;28;20078;-80
2023/05/01 10:07:29;;;;;;;7.45;2.00;;;17.40;99.90;;;;;;5001245;28;20041;-80
2023/05/01 10:09:55;;;;;;;6.28;2.05;;;17.50;99.90;;;;;;4994546;28;20129;-80
2023/05/01 10:12:25;;;;;;;6.25;2.22;;;17.60;99.90;;;;;;4995275;28;20057;-80
2023/05/01 10:14:55;;;;;;;6.30;1.70;;;17.60;99.90;;;;;;4995808;28;20067;-80
2023/05/01 10:17:21;;;;;;;6.40;2.13;;;17.60;99.70;;;;;;4990462;28;20042;-79
2023/05/01 10:19:47;;;;;;;3.67;1.70;;;17.80;99.90;;;;;;4990470;28;20042;-80
2023/05/01 10:22:14;;;;;;;5.50;1.85;;;17.80;99.20;;;;;;4973653;28;20501;-80
2023/05/01 10:24:41;;;;;;;5.22;1.77;;;17.90;99.10;;;;;;4989136;28;20516;-81
2023/05/01 10:27:07;;;;;;;4.22;1.67;;;18.00;98.20;;;;;;4993640;28;20076;-82
2023/05/01 10:29:38;;;;;;;5.55;1.65;;;18.00;98.30;;;;;;4989071;28;20589;-81
2023/05/01 10:32:07;;;;;;;4.80;1.90;;;18.00;99.10;;;;;;4992069;28;20038;-81
2023/05/01 10:34:41;;;;;;;6.75;2.75;;;18.10;98.80;;;;;;4990594;28;20053;-82
2023/05/01 10:37:12;;;;;;;5.55;2.15;;;18.20;98.80;;;;;;4990067;28;20042;-81
2023/05/01 10:39:38;;;;;;;7.15;1.77;;;18.20;98.80;;;;;;4997638;28;20480;-81
2023/05/01 10:42:15;;;;;;;3.78;1.80;;;18.30;99.30;;;;;;4992764;28;20096;-81
2023/05/01 10:44:41;;;;;;;5.18;1.80;;;18.30;99.00;;;;;;5002913;28;20052;-82
2023/05/01 10:47:30;;;;;;;3.92;1.27;;;18.40;98.10;;;;;;4994833;28;20034;-82
2023/05/01 10:50:09;;;;;;;6.40;2.10;;;18.50;95.90;;;;;;4991312;28;20136;-82
2023/05/01 10:53:08;;;;;;;3.92;1.90;;;18.60;97.70;;;;;;4991675;28;20042;-81
2023/05/01 10:55:35;;;;;;;7.93;2.30;;;18.70;98.10;;;;;;4997652;28;20042;-82
2023/05/01 10:58:01;;;;;;;7.90;2.30;;;18.80;98.30;;;;;;4995773;28;20057;-82
2023/05/01 11:00:26;;;;;;;4.45;1.95;;;18.80;98.60;;;;;;4995089;28;20046;-81
2023/05/01 11:03:21;;;;;;;6.75;2.75;;;18.90;98.40;;;;;;4996492;28;20053;-90
2023/05/01 11:05:58;;;;;;;7.88;2.55;;;18.90;98.30;;;;;;5011829;28;20057;-93
2023/05/01 11:08:36;;;;;;;8.73;2.58;;;18.90;97.90;;;;;;4995659;28;20117;-88
2023/05/01 11:11:20;;;;;;;5.30;2.30;;;18.90;97.50;;;;;;5000228;28;20042;-88
2023/05/01 11:14:09;;;;;;;4.35;1.60;;;19.00;97.30;;;;;;5017168;28;20430;-88
2023/05/01 11:16:41;;;;;;;5.10;1.40;;;19.10;97.60;;;;;;4997136;28;20041;-87
2023/05/01 11:19:20;;;;;;;5.63;1.55;;;19.20;96.70;;;;;;5001865;28;20113;-86
2023/05/01 11:21:46;;;;;;;4.85;1.40;;;19.30;97.30;;;;;;5003305;28;20556;-86
2023/05/01 11:24:12;;;;;;;7.93;1.17;;;19.40;97.30;;;;;;5021951;28;20051;-80
2023/05/01 11:26:39;;;;;;;5.75;1.30;;;19.60;96.70;;;;;;5000076;28;20544;-87
2023/05/01 11:29:06;;;;;;;5.10;1.70;;;19.70;96.40;;;;;;4998384;28;20081;-88
2023/05/01 11:31:32;;;;;;;3.63;1.10;;;19.70;95.90;;;;;;4998003;28;20046;-87
2023/05/01 11:33:59;;;;;;;5.03;1.23;;;19.80;95.30;;;;;;5002988;28;20046;-86
2023/05/01 11:36:26;;;;;;;4.00;1.33;;;20.00;95.90;;;;;;4985988;28;20042;-87
2023/05/01 11:38:55;;;;;;;3.55;1.33;;;20.00;95.30;;;;;;4993973;28;20045;-86
2023/05/01 11:41:24;;;;;;;3.97;1.73;;;20.10;96.30;;;;;;4979576;28;20053;-87
2023/05/01 11:43:52;;;;;;;5.22;1.50;;;20.00;95.80;;;;;;5004415;28;20046;-86
2023/05/01 11:46:28;;;;;;;3.30;1.40;;;20.00;95.40;;;;;;5003825;28;20107;-87
2023/05/01 11:48:55;;;;;;;10.40;1.48;;;20.10;96.60;;;;;;4989836;28;20038;-86
2023/05/01 11:51:22;;;;;;;3.42;1.25;;;20.20;96.30;;;;;;4994869;28;20045;-86
2023/05/01 11:54:04;;;;;;;7.43;1.17;;;20.30;95.40;;;;;;4994589;28;20046;-86
2023/05/01 11:56:31;;;;;;;3.53;1.25;;;20.40;93.20;;;;;;5001112;28;20440;-86
2023/05/01 11:58:58;;;;;;;3.10;0.85;;;20.50;94.80;;;;;;5004711;28;20440;-86
2023/05/01 12:01:38;;;;;;;2.33;0.90;;;20.60;94.90;;;;;;5003836;28;20054;-86
2023/05/01 12:04:06;;;;;;;4.32;0.98;;;20.60;95.40;;;;;;4994012;28;20042;-86
2023/05/01 12:06:44;;;;;;;3.05;0.88;;;20.60;95.10;;;;;;5003890;28;20437;-86
2023/05/01 12:09:22;;;;;;;8.27;1.13;;;20.50;94.20;;;;;;4995130;28;20034;-86
2023/05/01 12:11:52;;;;;;;3.20;0.85;;;20.50;94.90;;;;;;4998790;28;20041;-85
2023/05/01 12:14:20;;;;;;;2.45;0.90;;;20.40;95.20;;;;;;4995945;28;20081;-85
2023/05/01 12:16:47;;;;;;;3.28;0.70;;;20.30;93.90;;;;;;4995493;28;20038;-84
2023/05/01 12:19:14;;;;;;;4.03;1.25;;;20.20;94.30;;;;;;5000262;28;20082;-84
2023/05/01 12:21:40;;;;;;;6.00;1.10;;;20.10;94.00;;;;;;4993102;28;20045;-84
2023/05/01 12:24:16;;;;;;;3.92;1.20;;;20.10;94.10;;;;;;4999491;28;20050;-84
2023/05/01 12:26:43;;;;;;;4.35;1.13;;;20.00;94.40;;;;;;4997933;28;20030;-83
2023/05/01 12:29:10;;;;;;;3.92;0.95;;;20.00;93.60;;;;;;4999701;28;20504;-84
2023/05/01 12:31:44;;;;;;;5.53;1.45;;;20.00;94.10;;;;;;4998852;28;20117;-84
2023/05/01 12:34:11;;;;;;;7.20;1.65;;;19.80;93.70;;;;;;4994680;28;20045;-83
2023/05/01 12:36:37;;;;;;;5.03;1.70;;;19.80;94.10;;;;;;4996988;28;20078;-83
2023/05/01 12:39:08;;;;;;;3.53;1.30;;;19.60;94.40;;;;;;4998337;28;20087;-83
2023/05/01 12:41:39;;;;;;;5.07;1.85;;;19.50;94.40;;;;;;4998409;28;20049;-82
2023/05/01 12:44:24;;;;;;;4.47;1.30;;;19.40;94.60;;;;;;4999409;28;20068;-82
2023/05/01 12:46:53;;;;;;;3.60;1.17;;;19.20;94.70;;;;;;4992840;28;20055;-83
2023/05/01 12:49:20;;;;;;;5.60;0.90;;;19.20;94.70;;;;;;5006703;28;20046;-83
2023/05/01 12:51:50;;;;;;;3.92;1.35;;;19.10;95.10;;;;;;4991404;28;20092;-82